createdAt,value
2022-09-13T00:01:06.021Z,1.00
2022-09-13T00:03:11.816Z,1.00
2022-09-13T00:05:13.642Z,9.30
2022-09-13T00:07:15.331Z,13.80
2022-09-13T00:09:17.044Z,8.10
2022-09-13T00:11:24.534Z,9.90
2022-09-13T00:13:26.165Z,6.60
2022-09-13T00:15:28.154Z,1.00
2022-09-13T00:17:29.768Z,1.00
2022-09-13T00:19:31.424Z,1.00
2022-09-13T00:21:33.122Z,1.00
2022-09-13T00:23:37.138Z,1.00
2022-09-13T00:25:39.229Z,1.00
2022-09-13T00:27:41.118Z,1.00
2022-09-13T00:29:42.801Z,1.00
2022-09-13T00:31:44.510Z,1.00
2022-09-13T00:33:46.473Z,1.00
2022-09-13T00:35:48.138Z,1.00
2022-09-13T00:37:51.238Z,1.00
2022-09-13T00:39:52.937Z,1.00
2022-09-13T00:41:54.792Z,1.00
2022-09-13T00:43:59.298Z,1.00
2022-09-13T00:46:01.148Z,1.00
2022-09-13T00:48:07.463Z,1.00
2022-09-13T00:50:16.759Z,1.00
2022-09-13T00:52:22.558Z,1.00
2022-09-13T00:54:29.332Z,1.00
2022-09-13T00:56:39.578Z,1.00
2022-09-13T00:58:52.376Z,1.00
2022-09-13T01:00:56.694Z,1.00
2022-09-13T01:03:04.701Z,1.00
2022-09-13T01:05:07.190Z,1.00
2022-09-13T01:07:13.691Z,1.00
2022-09-13T01:09:15.736Z,1.00
2022-09-13T01:11:25.534Z,1.00
2022-09-13T01:13:32.205Z,1.00
2022-09-13T01:15:33.843Z,1.00
2022-09-13T01:17:36.970Z,1.00
2022-09-13T01:19:38.837Z,1.00
2022-09-13T01:22:01.754Z,1.00
2022-09-13T01:24:18.203Z,1.00
2022-09-13T01:26:36.465Z,1.00
2022-09-13T01:28:51.999Z,1.00
2022-09-13T01:31:20.211Z,1.00
2022-09-13T01:33:54.091Z,1.00
2022-09-13T01:36:37.606Z,1.10
2022-09-13T01:38:51.430Z,4.60
2022-09-13T01:41:01.854Z,5.00
2022-09-13T01:43:33.555Z,4.80
2022-09-13T01:45:51.149Z,6.30
2022-09-13T01:47:58.374Z,1.30
2022-09-13T01:50:20.293Z,1.00
2022-09-13T01:52:44.180Z,4.00
2022-09-13T01:54:48.742Z,6.20
2022-09-13T01:57:29.537Z,5.30
2022-09-13T01:59:39.629Z,6.50
2022-09-13T02:01:51.254Z,6.10
2022-09-13T02:04:24.434Z,6.20
2022-09-13T02:06:51.465Z,14.90
2022-09-13T02:09:01.721Z,5.30
2022-09-13T02:11:09.558Z,10.00
2022-09-13T02:13:17.046Z,1.90
2022-09-13T02:15:35.040Z,1.10
2022-09-13T02:17:41.471Z,5.50
2022-09-13T02:20:03.740Z,11.00
2022-09-13T02:22:08.305Z,24.40
2022-09-13T02:24:16.812Z,26.20
2022-09-13T02:26:21.278Z,28.60
2022-09-13T02:28:31.583Z,28.10
2022-09-13T02:30:40.275Z,29.60
2022-09-13T02:33:08.681Z,36.40
2022-09-13T02:35:25.487Z,36.10
2022-09-13T02:37:32.297Z,28.50
2022-09-13T02:39:37.897Z,37.40
2022-09-13T02:41:46.228Z,47.40
2022-09-13T02:43:53.794Z,43.70
2022-09-13T02:46:08.169Z,43.60
2022-09-13T02:48:18.229Z,49.20
2022-09-13T02:50:44.105Z,49.40
2022-09-13T02:53:13.357Z,32.80
2022-09-13T02:55:45.802Z,34.20
2022-09-13T02:57:47.402Z,33.90
2022-09-13T02:59:49.581Z,38.00
2022-09-13T03:01:58.197Z,43.40
2022-09-13T03:03:59.985Z,40.50
2022-09-13T03:06:02.470Z,41.10
2022-09-13T03:08:05.793Z,47.90
2022-09-13T03:10:11.282Z,39.70
2022-09-13T03:12:22.663Z,30.90
2022-09-13T03:14:50.103Z,21.00
2022-09-13T03:17:22.466Z,21.10
2022-09-13T03:19:36.074Z,18.90
2022-09-13T03:21:43.410Z,27.70
2022-09-13T03:24:28.881Z,28.20
2022-09-13T03:26:42.542Z,26.90
2022-09-13T03:28:59.930Z,27.80
2022-09-13T03:31:21.393Z,27.70
2022-09-13T03:33:31.552Z,24.00
2022-09-13T03:36:09.591Z,21.80
2022-09-13T03:38:16.687Z,25.10
2022-09-13T03:40:22.518Z,35.00
2022-09-13T03:42:42.751Z,33.80
2022-09-13T03:44:48.959Z,35.10
2022-09-13T03:46:57.221Z,44.30
2022-09-13T03:49:05.031Z,53.70
2022-09-13T03:51:07.525Z,61.30
2022-09-13T03:53:15.281Z,67.20
2022-09-13T03:55:22.151Z,63.60
2022-09-13T03:57:23.812Z,62.70
2022-09-13T03:59:26.012Z,58.00
2022-09-13T04:01:27.986Z,51.20
2022-09-13T04:03:29.827Z,55.50
2022-09-13T04:05:31.453Z,60.20
2022-09-13T04:07:33.242Z,53.50
2022-09-13T04:09:34.854Z,52.50
2022-09-13T04:11:36.549Z,54.40
2022-09-13T04:13:38.641Z,53.50
2022-09-13T04:15:40.278Z,51.70
2022-09-13T04:17:41.975Z,47.90
2022-09-13T04:19:47.232Z,51.40
2022-09-13T04:21:50.554Z,50.00
2022-09-13T04:23:52.170Z,53.60
2022-09-13T04:25:54.054Z,64.50
2022-09-13T04:27:56.733Z,70.80
2022-09-13T04:29:58.374Z,78.50
2022-09-13T04:32:00.556Z,93.00
2022-09-13T04:34:03.250Z,95.20
2022-09-13T04:36:05.172Z,97.80
2022-09-13T04:38:07.754Z,99.90
2022-09-13T04:40:09.877Z,96.20
2022-09-13T04:42:11.814Z,97.70
2022-09-13T04:44:14.354Z,95.20
2022-09-13T04:46:16.436Z,96.80
2022-09-13T04:48:18.167Z,94.00
2022-09-13T04:50:21.674Z,92.70
2022-09-13T04:52:23.785Z,88.70
2022-09-13T04:54:25.489Z,83.60
2022-09-13T04:56:27.751Z,82.90
2022-09-13T04:58:29.706Z,68.30
2022-09-13T05:00:32.526Z,63.90
2022-09-13T05:02:34.949Z,64.50
2022-09-13T05:04:36.598Z,60.00
2022-09-13T05:06:38.527Z,59.60
2022-09-13T05:08:40.782Z,44.00
2022-09-13T05:10:42.574Z,36.80
2022-09-13T05:12:44.285Z,46.30
2022-09-13T05:14:46.254Z,39.10
2022-09-13T05:16:47.878Z,40.20
2022-09-13T05:18:49.725Z,42.90
2022-09-13T05:20:55.345Z,44.70
2022-09-13T05:22:56.961Z,49.70
2022-09-13T05:24:58.694Z,49.80
2022-09-13T05:27:00.489Z,50.80
2022-09-13T05:29:02.584Z,69.40
2022-09-13T05:31:20.075Z,54.50
2022-09-13T05:33:21.912Z,50.00
2022-09-13T05:35:23.586Z,61.90
2022-09-13T05:37:25.262Z,51.90
2022-09-13T05:39:34.104Z,46.70
2022-09-13T05:41:46.045Z,47.80
2022-09-13T05:43:48.110Z,43.40
2022-09-13T05:45:50.397Z,52.60
2022-09-13T05:47:52.550Z,38.00
2022-09-13T05:50:11.830Z,31.80
2022-09-13T05:52:15.806Z,35.30
2022-09-13T05:54:17.592Z,26.40
2022-09-13T05:56:22.213Z,31.40
2022-09-13T05:58:23.872Z,27.90
2022-09-13T06:00:25.490Z,22.20
2022-09-13T06:02:27.329Z,19.90
2022-09-13T06:04:29.066Z,29.10
2022-09-13T06:06:30.722Z,29.70
2022-09-13T06:08:33.978Z,33.60
2022-09-13T06:10:35.701Z,1.80
2022-09-13T06:12:38.175Z,1.00
2022-09-13T06:14:39.940Z,1.00
2022-09-13T06:16:41.590Z,1.00
2022-09-13T06:18:43.479Z,1.00
2022-09-13T06:20:45.685Z,1.00
2022-09-13T06:22:50.305Z,1.00
2022-09-13T06:24:52.154Z,1.00
2022-09-13T06:26:54.268Z,1.00
2022-09-13T06:28:58.144Z,1.00
2022-09-13T06:31:01.408Z,1.00
2022-09-13T06:33:03.205Z,1.00
2022-09-13T06:35:05.302Z,1.00
2022-09-13T06:37:06.927Z,1.00
2022-09-13T06:39:08.753Z,1.00
2022-09-13T06:41:13.326Z,1.00
2022-09-13T06:43:15.709Z,1.00
2022-09-13T06:45:19.064Z,1.00
2022-09-13T06:47:20.695Z,1.00
2022-09-13T06:49:22.378Z,1.00
2022-09-13T06:51:25.629Z,1.00
2022-09-13T06:53:28.826Z,1.00
2022-09-13T06:55:30.507Z,1.00
2022-09-13T06:57:32.097Z,12.70
2022-09-13T06:59:34.966Z,16.50
2022-09-13T07:01:44.841Z,1.00
2022-09-13T07:03:48.774Z,1.00
2022-09-13T07:05:50.368Z,1.00
2022-09-13T07:07:52.046Z,99.90
2022-09-13T07:09:53.690Z,99.90
2022-09-13T07:11:56.606Z,1.00
2022-09-13T07:13:59.450Z,1.00
2022-09-13T07:16:11.711Z,36.90
2022-09-13T07:18:13.467Z,99.90
2022-09-13T07:20:15.889Z,99.90
2022-09-13T07:22:17.877Z,99.90
2022-09-13T07:24:20.625Z,99.90
2022-09-13T07:26:22.922Z,99.90
2022-09-13T07:28:27.396Z,99.90
2022-09-13T07:30:29.221Z,99.90
2022-09-13T07:32:32.990Z,99.90
2022-09-13T07:34:34.809Z,99.90
2022-09-13T07:36:36.872Z,99.90
2022-09-13T07:38:41.368Z,99.90
2022-09-13T07:40:43.854Z,99.90
2022-09-13T07:42:45.445Z,99.90
2022-09-13T07:44:47.105Z,25.60
2022-09-13T07:46:48.929Z,21.80
2022-09-13T07:48:53.613Z,99.90
2022-09-13T07:51:10.005Z,1.00
2022-09-13T07:53:11.653Z,1.00
2022-09-13T07:55:13.351Z,1.00
2022-09-13T07:57:15.095Z,1.00
2022-09-13T07:59:17.951Z,99.90
2022-09-13T08:01:22.711Z,1.00
2022-09-13T08:03:24.461Z,99.90
2022-09-13T08:05:26.088Z,99.90
2022-09-13T08:07:27.681Z,99.90
2022-09-13T08:09:29.341Z,99.90
2022-09-13T08:11:39.368Z,99.90
2022-09-13T08:13:41.055Z,81.60
2022-09-13T08:15:43.441Z,39.90
2022-09-13T08:17:45.061Z,23.40
2022-09-13T08:19:46.691Z,50.50
2022-09-13T08:21:49.046Z,99.90
2022-09-13T08:23:54.703Z,99.90
2022-09-13T08:26:01.625Z,99.90
2022-09-13T08:28:17.021Z,99.90
2022-09-13T08:30:18.744Z,99.00
2022-09-13T08:32:20.475Z,99.90
2022-09-13T08:34:22.361Z,99.90
2022-09-13T08:36:25.989Z,98.90
2022-09-13T08:38:28.632Z,94.90
2022-09-13T08:40:34.458Z,56.40
2022-09-13T08:42:51.231Z,7.90
2022-09-13T08:44:56.173Z,30.40
2022-09-13T08:47:04.651Z,2.80
2022-09-13T08:49:16.242Z,21.50
2022-09-13T08:51:47.200Z,1.00
2022-09-13T08:53:50.390Z,1.00
2022-09-13T08:55:52.078Z,7.30
2022-09-13T08:58:12.709Z,23.40
2022-09-13T09:00:40.134Z,12.10
2022-09-13T09:03:08.630Z,9.80
2022-09-13T09:05:23.746Z,13.90
2022-09-13T09:07:31.141Z,19.90
2022-09-13T09:09:39.953Z,23.10
2022-09-13T09:11:59.460Z,1.00
2022-09-13T09:14:11.573Z,1.00
2022-09-13T09:16:35.279Z,1.00
2022-09-13T09:18:40.426Z,1.00
2022-09-13T09:20:46.098Z,1.00
2022-09-13T09:22:49.161Z,1.00
2022-09-13T09:24:54.908Z,1.00
2022-09-13T09:26:58.251Z,17.70
2022-09-13T09:29:28.574Z,58.60
2022-09-13T09:31:52.161Z,77.90
2022-09-13T09:33:55.137Z,99.90
2022-09-13T09:36:07.201Z,99.90
2022-09-13T09:38:43.852Z,99.90
2022-09-13T09:40:45.951Z,1.00
2022-09-13T09:42:49.438Z,1.00
2022-09-13T09:45:06.672Z,1.00
2022-09-13T09:47:30.244Z,99.90
2022-09-13T09:49:54.262Z,1.00
2022-09-13T09:51:57.220Z,99.90
2022-09-13T09:54:05.146Z,99.90
2022-09-13T09:56:20.416Z,99.90
2022-09-13T09:58:43.428Z,99.90
2022-09-13T10:00:57.125Z,99.90
2022-09-13T10:03:18.313Z,99.90
2022-09-13T10:05:22.912Z,98.00
2022-09-13T10:07:34.461Z,91.00
2022-09-13T10:09:37.832Z,76.80
2022-09-13T10:11:57.743Z,99.90
2022-09-13T10:14:02.127Z,66.70
2022-09-13T10:16:06.394Z,44.80
2022-09-13T10:18:42.306Z,37.80
2022-09-13T10:20:38.333Z,75.10
2022-09-13T10:22:40.237Z,98.90
2022-09-13T10:24:42.155Z,99.90
2022-09-13T10:26:44.050Z,99.90
2022-09-13T10:29:07.513Z,99.90
2022-09-13T10:31:16.421Z,97.00
2022-09-13T10:33:30.251Z,88.40
2022-09-13T10:35:33.451Z,10.60
2022-09-13T10:37:36.230Z,1.00
2022-09-13T10:39:50.043Z,5.40
2022-09-13T10:42:03.852Z,1.00
2022-09-13T10:44:22.154Z,1.00
2022-09-13T10:46:25.110Z,1.00
2022-09-13T10:48:30.068Z,1.00
2022-09-13T10:50:32.145Z,99.90
2022-09-13T10:52:38.449Z,99.90
2022-09-13T10:54:42.447Z,99.90
2022-09-13T10:56:45.268Z,1.00
2022-09-13T10:58:46.959Z,1.00
2022-09-13T11:01:07.309Z,32.00
2022-09-13T11:03:51.253Z,50.50
2022-09-13T11:06:04.694Z,48.40
2022-09-13T11:08:11.287Z,47.50
2022-09-13T11:10:29.585Z,47.00
2022-09-13T11:13:09.318Z,49.20
2022-09-13T11:15:28.522Z,51.00
2022-09-13T11:17:48.136Z,50.40
2022-09-13T11:20:22.843Z,52.00
2022-09-13T11:22:30.546Z,52.30
2022-09-13T11:24:47.515Z,53.40
2022-09-13T11:27:01.215Z,53.40
2022-09-13T11:29:26.054Z,52.10
2022-09-13T11:31:44.176Z,48.20
2022-09-13T11:34:06.943Z,46.80
2022-09-13T11:36:36.113Z,46.60
2022-09-13T11:38:52.922Z,46.70
2022-09-13T11:40:54.517Z,47.80
2022-09-13T11:43:05.538Z,48.00
2022-09-13T11:45:27.036Z,50.30
2022-09-13T11:47:56.763Z,47.70
2022-09-13T11:50:19.583Z,47.60
2022-09-13T11:52:40.179Z,47.40
2022-09-13T11:55:00.485Z,49.10
2022-09-13T11:57:12.370Z,42.40
2022-09-13T11:59:30.855Z,45.60
2022-09-13T12:01:39.840Z,41.20
2022-09-13T12:04:00.955Z,43.30
2022-09-13T12:06:11.588Z,48.70
2022-09-13T12:08:19.888Z,43.20
2022-09-13T12:10:21.511Z,41.70
2022-09-13T12:12:26.600Z,43.70
2022-09-13T12:14:34.665Z,40.00
2022-09-13T12:16:44.923Z,36.40
2022-09-13T12:18:50.822Z,35.60
2022-09-13T12:21:07.394Z,34.00
2022-09-13T12:23:20.626Z,33.80
2022-09-13T12:25:31.086Z,33.90
2022-09-13T12:27:47.550Z,37.50
2022-09-13T12:29:53.681Z,37.00
2022-09-13T12:32:03.592Z,36.90
2022-09-13T12:34:10.034Z,36.20
2022-09-13T12:36:39.891Z,35.80
2022-09-13T12:39:06.395Z,37.20
2022-09-13T12:41:28.307Z,38.00
2022-09-13T12:44:09.419Z,37.60
2022-09-13T12:46:34.402Z,42.10
2022-09-13T12:48:49.321Z,40.00
2022-09-13T12:51:03.987Z,40.80
2022-09-13T12:53:23.489Z,41.10
2022-09-13T12:55:54.356Z,44.30
2022-09-13T12:58:01.895Z,46.80
2022-09-13T13:00:21.248Z,43.20
2022-09-13T13:02:35.024Z,45.80
2022-09-13T13:04:37.398Z,46.20
2022-09-13T13:06:49.389Z,46.20
2022-09-13T13:08:54.505Z,46.50
2022-09-13T13:11:09.782Z,41.70
2022-09-13T13:13:14.435Z,41.40
2022-09-13T13:15:16.055Z,38.50
2022-09-13T13:17:48.972Z,37.80
2022-09-13T13:19:50.660Z,36.80
2022-09-13T13:21:54.324Z,39.20
2022-09-13T13:24:18.920Z,36.40
2022-09-13T13:26:24.016Z,41.10
2022-09-13T13:28:44.178Z,38.30
2022-09-13T13:30:54.784Z,38.20
2022-09-13T13:33:13.280Z,37.90
2022-09-13T13:35:32.424Z,38.30
2022-09-13T13:37:37.259Z,41.70
2022-09-13T13:39:47.704Z,39.80
2022-09-13T13:41:53.307Z,42.10
2022-09-13T13:43:55.218Z,41.60
2022-09-13T13:45:59.914Z,43.30
2022-09-13T13:48:15.492Z,41.40
2022-09-13T13:50:19.639Z,38.30
2022-09-13T13:52:25.402Z,39.70
2022-09-13T13:54:51.591Z,39.10
2022-09-13T13:56:53.430Z,40.50
2022-09-13T13:59:13.006Z,41.60
2022-09-13T14:01:28.682Z,40.00
2022-09-13T14:04:08.374Z,39.40
2022-09-13T14:06:10.000Z,43.90
2022-09-13T14:08:24.522Z,44.60
2022-09-13T14:10:30.343Z,44.40
2022-09-13T14:13:04.021Z,45.30
2022-09-13T14:15:35.593Z,44.50
2022-09-13T14:17:52.454Z,48.40
2022-09-13T14:20:04.429Z,47.90
2022-09-13T14:22:19.872Z,47.70
2022-09-13T14:24:24.731Z,48.10
2022-09-13T14:26:28.627Z,47.80
2022-09-13T14:28:32.641Z,45.70
2022-09-13T14:30:39.265Z,48.60
2022-09-13T14:32:44.586Z,46.40
2022-09-13T14:35:06.227Z,49.50
2022-09-13T14:37:18.399Z,48.90
2022-09-13T14:39:22.480Z,47.30
2022-09-13T14:41:34.823Z,46.90
2022-09-13T14:43:37.335Z,47.50
2022-09-13T14:45:39.273Z,45.10
2022-09-13T14:47:55.163Z,45.50
2022-09-13T14:50:04.402Z,45.10
2022-09-13T14:52:14.899Z,43.50
2022-09-13T14:54:29.159Z,46.00
2022-09-13T14:56:45.552Z,45.40
2022-09-13T14:58:56.505Z,45.30
2022-09-13T15:01:03.203Z,48.00
2022-09-13T15:03:12.938Z,46.80
2022-09-13T15:05:18.213Z,48.00
2022-09-13T15:07:32.289Z,45.30
2022-09-13T15:09:34.900Z,47.90
2022-09-13T15:11:54.346Z,45.00
2022-09-13T15:14:17.336Z,45.00
2022-09-13T15:16:29.848Z,45.50
2022-09-13T15:18:36.774Z,47.00
2022-09-13T15:20:53.545Z,47.20
2022-09-13T15:22:55.724Z,47.90
2022-09-13T15:25:00.363Z,48.80
2022-09-13T15:27:07.876Z,48.30
2022-09-13T15:29:18.312Z,50.00
2022-09-13T15:31:21.561Z,50.60
2022-09-13T15:33:32.845Z,52.20
2022-09-13T15:35:41.189Z,53.20
2022-09-13T15:37:43.206Z,52.40
2022-09-13T15:39:50.368Z,54.10
2022-09-13T15:41:57.398Z,53.20
2022-09-13T15:44:01.959Z,53.80
2022-09-13T15:46:04.818Z,54.40
2022-09-13T15:48:07.245Z,43.90
2022-09-13T15:50:40.376Z,1.00
2022-09-13T15:52:43.338Z,1.00
2022-09-13T15:54:49.129Z,1.00
2022-09-13T15:56:51.849Z,1.00
2022-09-13T15:58:53.565Z,1.00
2022-09-13T16:00:55.247Z,1.00
2022-09-13T16:02:57.005Z,1.00
2022-09-13T16:04:59.132Z,1.00
2022-09-13T16:07:00.757Z,1.00
2022-09-13T16:09:05.875Z,1.00
2022-09-13T16:11:08.331Z,1.00
2022-09-13T16:13:10.052Z,1.00
2022-09-13T16:15:13.001Z,11.90
2022-09-13T16:17:23.761Z,5.70
2022-09-13T16:19:26.146Z,94.20
2022-09-13T16:21:29.808Z,95.60
2022-09-13T16:23:31.428Z,99.90
2022-09-13T16:25:34.954Z,99.90
2022-09-13T16:27:37.346Z,99.90
2022-09-13T16:29:39.061Z,49.00
2022-09-13T16:31:41.160Z,61.90
2022-09-13T16:33:43.413Z,98.50
2022-09-13T16:35:45.569Z,99.90
2022-09-13T16:37:51.342Z,78.60
2022-09-13T16:39:57.445Z,77.20
2022-09-13T16:41:59.206Z,99.90
2022-09-13T16:44:01.961Z,99.90
2022-09-13T16:46:09.047Z,99.90
2022-09-13T16:48:11.413Z,99.90
2022-09-13T16:50:13.897Z,99.90
2022-09-13T16:52:15.644Z,99.90
2022-09-13T16:54:17.478Z,99.90
2022-09-13T16:56:21.709Z,99.90
2022-09-13T16:58:23.520Z,99.90
2022-09-13T17:00:28.559Z,99.90
2022-09-13T17:02:31.023Z,1.00
2022-09-13T17:04:32.942Z,99.90
2022-09-13T17:06:34.715Z,99.90
2022-09-13T17:08:38.448Z,99.90
2022-09-13T17:10:40.361Z,99.90
2022-09-13T17:12:42.074Z,1.00
2022-09-13T17:14:47.332Z,1.00
2022-09-13T17:16:54.428Z,1.00
2022-09-13T17:19:01.908Z,1.00
2022-09-13T17:21:03.640Z,1.00
2022-09-13T17:23:05.270Z,1.00
2022-09-13T17:25:10.118Z,99.40
2022-09-13T17:27:11.933Z,99.90
2022-09-13T17:29:14.689Z,66.50
2022-09-13T17:31:16.942Z,99.90
2022-09-13T17:33:19.869Z,99.90
2022-09-13T17:35:22.880Z,99.90
2022-09-13T17:37:25.074Z,1.00
2022-09-13T17:39:26.960Z,1.00
2022-09-13T17:41:30.250Z,21.30
2022-09-13T17:43:34.855Z,99.90
2022-09-13T17:45:36.730Z,99.90
2022-09-13T17:47:38.382Z,63.70
2022-09-13T17:49:40.048Z,99.90
2022-09-13T17:51:41.925Z,99.90
2022-09-13T17:54:05.824Z,28.00
2022-09-13T17:56:08.220Z,1.00
2022-09-13T17:58:09.949Z,1.00
2022-09-13T18:00:13.547Z,99.90
2022-09-13T18:02:15.727Z,99.90
2022-09-13T18:04:19.511Z,99.90
2022-09-13T18:06:21.425Z,99.90
2022-09-13T18:08:24.130Z,99.90
2022-09-13T18:10:49.308Z,99.90
2022-09-13T18:12:47.819Z,99.90
2022-09-13T18:14:49.549Z,99.90
2022-09-13T18:16:55.560Z,99.90
2022-09-13T18:18:59.197Z,37.00
2022-09-13T18:21:01.079Z,1.00
2022-09-13T18:23:02.922Z,1.00
2022-09-13T18:25:05.240Z,1.00
2022-09-13T18:27:07.170Z,99.90
2022-09-13T18:29:13.839Z,99.90
2022-09-13T18:31:17.765Z,99.90
2022-09-13T18:33:21.103Z,1.00
2022-09-13T18:35:22.766Z,1.00
2022-09-13T18:37:24.619Z,41.30
2022-09-13T18:39:26.299Z,99.90
2022-09-13T18:41:31.725Z,1.00
2022-09-13T18:43:35.310Z,1.00
2022-09-13T18:45:36.993Z,42.00
2022-09-13T18:47:38.752Z,99.90
2022-09-13T18:49:40.428Z,88.80
2022-09-13T18:51:43.910Z,99.90
2022-09-13T18:53:47.064Z,99.90
2022-09-13T18:55:49.024Z,99.90
2022-09-13T18:57:50.737Z,57.10
2022-09-13T18:59:52.448Z,1.00
2022-09-13T19:01:54.228Z,99.90
2022-09-13T19:04:20.197Z,66.80
2022-09-13T19:06:25.944Z,67.20
2022-09-13T19:08:27.570Z,99.90
2022-09-13T19:10:32.112Z,99.90
2022-09-13T19:12:33.770Z,1.00
2022-09-13T19:14:35.405Z,99.90
2022-09-13T19:16:37.049Z,1.00
2022-09-13T19:18:40.170Z,1.00
2022-09-13T19:20:41.817Z,1.00
2022-09-13T19:22:46.224Z,1.00
2022-09-13T19:24:48.363Z,1.00
2022-09-13T19:26:52.356Z,1.00
2022-09-13T19:28:57.209Z,1.00
2022-09-13T19:31:10.005Z,1.00
2022-09-13T19:33:11.734Z,8.50
2022-09-13T19:35:13.585Z,1.00
2022-09-13T19:37:15.506Z,99.90
2022-09-13T19:39:17.328Z,93.00
2022-09-13T19:41:20.894Z,99.90
2022-09-13T19:43:22.919Z,99.90
2022-09-13T19:45:25.434Z,99.90
2022-09-13T19:48:12.926Z,99.90
2022-09-13T19:49:49.804Z,99.90
2022-09-13T19:51:52.401Z,99.90
2022-09-13T19:53:57.702Z,99.90
2022-09-13T19:55:59.861Z,99.90
2022-09-13T19:58:01.483Z,1.00
2022-09-13T20:00:04.333Z,97.30
2022-09-13T20:02:06.858Z,99.90
2022-09-13T20:04:11.957Z,99.90
2022-09-13T20:06:14.030Z,99.90
2022-09-13T20:08:16.067Z,99.90
2022-09-13T20:10:17.684Z,99.90
2022-09-13T20:12:23.720Z,99.90
2022-09-13T20:14:25.406Z,99.90
2022-09-13T20:16:32.594Z,99.90
2022-09-13T20:18:34.209Z,53.80
2022-09-13T20:20:36.304Z,99.90
2022-09-13T20:22:37.949Z,71.10
2022-09-13T20:24:39.763Z,99.90
2022-09-13T20:26:41.866Z,99.90
2022-09-13T20:28:43.910Z,99.90
2022-09-13T20:30:53.653Z,99.90
2022-09-13T20:32:55.464Z,99.90
2022-09-13T20:34:57.452Z,99.90
2022-09-13T20:36:59.193Z,99.90
2022-09-13T20:39:03.372Z,99.90
2022-09-13T20:41:11.758Z,99.90
2022-09-13T20:43:14.793Z,90.60
2022-09-13T20:45:16.674Z,58.30
2022-09-13T20:47:18.304Z,40.60
2022-09-13T20:49:19.927Z,99.90
2022-09-13T20:51:25.239Z,99.90
2022-09-13T20:53:28.109Z,99.90
2022-09-13T20:55:29.790Z,85.60
2022-09-13T20:57:31.433Z,99.90
2022-09-13T20:59:33.050Z,99.90
2022-09-13T21:01:35.078Z,99.90
2022-09-13T21:03:43.578Z,99.90
2022-09-13T21:05:45.428Z,99.90
2022-09-13T21:08:05.826Z,99.90
2022-09-13T21:10:07.952Z,99.90
2022-09-13T21:12:10.447Z,99.90
2022-09-13T21:14:12.033Z,99.90
2022-09-13T21:16:16.424Z,99.90
2022-09-13T21:18:18.046Z,99.90
2022-09-13T21:20:19.677Z,99.90
2022-09-13T21:22:21.385Z,99.90
2022-09-13T21:24:23.072Z,99.90
2022-09-13T21:26:26.845Z,1.00
2022-09-13T21:28:29.014Z,1.00
2022-09-13T21:30:30.869Z,1.00
2022-09-13T21:32:32.514Z,1.00
2022-09-13T21:34:34.241Z,1.00
2022-09-13T21:36:36.001Z,1.00
2022-09-13T21:38:38.401Z,1.00
2022-09-13T21:40:41.166Z,1.00
2022-09-13T21:42:42.806Z,1.00
2022-09-13T21:44:45.070Z,1.00
2022-09-13T21:46:46.880Z,1.00
2022-09-13T21:48:51.925Z,1.00
2022-09-13T21:50:53.830Z,1.00
2022-09-13T21:52:58.815Z,1.00
2022-09-13T21:55:00.478Z,1.00
2022-09-13T21:57:02.119Z,1.00
2022-09-13T21:59:06.885Z,1.00
2022-09-13T22:01:12.041Z,1.00
2022-09-13T22:03:13.715Z,1.00
2022-09-13T22:05:15.365Z,1.00
2022-09-13T22:07:17.486Z,1.00
2022-09-13T22:09:20.862Z,1.00
2022-09-13T22:11:25.145Z,1.00
2022-09-13T22:13:26.801Z,1.00
2022-09-13T22:15:28.419Z,1.00
2022-09-13T22:17:30.617Z,1.00
2022-09-13T22:19:32.424Z,1.00
2022-09-13T22:21:36.282Z,1.00
2022-09-13T22:23:38.062Z,1.00
2022-09-13T22:25:41.894Z,1.00
2022-09-13T22:27:43.624Z,1.00
2022-09-13T22:29:45.594Z,1.00
2022-09-13T22:31:49.659Z,1.00
2022-09-13T22:33:52.054Z,1.00
2022-09-13T22:36:06.346Z,1.00
2022-09-13T22:38:08.997Z,1.00
2022-09-13T22:40:10.902Z,1.00
2022-09-13T22:42:12.685Z,1.00
2022-09-13T22:44:14.466Z,1.00
2022-09-13T22:46:20.101Z,1.00
2022-09-13T22:48:22.723Z,1.00
2022-09-13T22:50:24.621Z,1.00
2022-09-13T22:52:26.217Z,1.00
2022-09-13T22:54:28.507Z,1.00
2022-09-13T22:56:32.408Z,1.00
2022-09-13T22:58:34.883Z,1.00
2022-09-13T23:00:36.527Z,1.00
2022-09-13T23:02:38.196Z,1.00
2022-09-13T23:04:39.794Z,1.00
2022-09-13T23:06:43.770Z,1.00
2022-09-13T23:08:47.497Z,1.00
2022-09-13T23:10:49.252Z,1.00
2022-09-13T23:12:51.057Z,1.00
2022-09-13T23:14:52.761Z,1.00
2022-09-13T23:16:54.997Z,1.00
2022-09-13T23:18:57.220Z,1.00
2022-09-13T23:20:59.589Z,1.00
2022-09-13T23:23:01.233Z,1.00
2022-09-13T23:25:03.182Z,1.00
2022-09-13T23:27:05.113Z,1.00
2022-09-13T23:29:06.970Z,1.00
2022-09-13T23:31:14.626Z,1.00
2022-09-13T23:33:16.770Z,1.00
2022-09-13T23:35:18.662Z,1.00
2022-09-13T23:37:20.465Z,1.00
2022-09-13T23:39:22.967Z,1.00
2022-09-13T23:41:25.903Z,1.00
2022-09-13T23:43:27.589Z,1.00
2022-09-13T23:45:29.797Z,1.00
2022-09-13T23:47:31.629Z,1.00
2022-09-13T23:49:33.272Z,1.00
2022-09-13T23:51:35.079Z,1.00
2022-09-13T23:53:37.709Z,1.00
2022-09-13T23:55:39.472Z,1.00
2022-09-13T23:57:41.236Z,1.00
2022-09-13T23:59:42.937Z,1.00
